sensor_id;sensor_type;location;lat;lon;timestamp;pressure;altitude;pressure_sealevel;temperature;humidity
55271;BME280;41132;47.162;9.470;2023-03-23T00:02:30;96132.28;;;9.66;100.00
55271;BME280;41132;47.162;9.470;2023-03-23T00:05:00;96119.69;;;9.70;100.00
55271;BME280;41132;47.162;9.470;2023-03-23T00:07:26;96129.56;;;9.84;100.00
55271;BME280;41132;47.162;9.470;2023-03-23T00:09:53;96134.00;;;9.83;100.00
55271;BME280;41132;47.162;9.470;2023-03-23T00:12:25;96129.38;;;9.77;99.76
55271;BME280;41132;47.162;9.470;2023-03-23T00:15:01;96118.94;;;9.86;98.94
55271;BME280;41132;47.162;9.470;2023-03-23T00:17:28;96126.44;;;9.80;100.00
55271;BME280;41132;47.162;9.470;2023-03-23T00:19:54;96113.97;;;9.74;99.48
55271;BME280;41132;47.162;9.470;2023-03-23T00:22:19;96116.28;;;9.77;100.00
55271;BME280;41132;47.162;9.470;2023-03-23T00:24:47;96125.56;;;9.72;100.00
55271;BME280;41132;47.162;9.470;2023-03-23T00:27:16;96118.22;;;9.75;100.00
55271;BME280;41132;47.162;9.470;2023-03-23T00:29:41;96113.97;;;9.74;100.00
55271;BME280;41132;47.162;9.470;2023-03-23T00:32:08;96112.03;;;9.85;99.20
55271;BME280;41132;47.162;9.470;2023-03-23T00:34:39;96110.53;;;9.74;100.00
55271;BME280;41132;47.162;9.470;2023-03-23T00:37:07;96108.81;;;9.48;100.00
55271;BME280;41132;47.162;9.470;2023-03-23T00:39:33;96107.53;;;9.60;100.00
55271;BME280;41132;47.162;9.470;2023-03-23T00:41:58;96108.53;;;9.59;100.00
55271;BME280;41132;47.162;9.470;2023-03-23T00:44:31;96098.53;;;9.55;100.00
55271;BME280;41132;47.162;9.470;2023-03-23T00:46:58;96099.56;;;9.70;100.00
55271;BME280;41132;47.162;9.470;2023-03-23T00:49:25;96090.50;;;9.65;100.00
55271;BME280;41132;47.162;9.470;2023-03-23T00:51:52;96099.19;;;9.57;100.00
55271;BME280;41132;47.162;9.470;2023-03-23T00:54:18;96092.75;;;9.43;100.00
55271;BME280;41132;47.162;9.470;2023-03-23T00:56:43;96090.22;;;9.25;100.00
55271;BME280;41132;47.162;9.470;2023-03-23T00:59:08;96083.53;;;9.31;100.00
55271;BME280;41132;47.162;9.470;2023-03-23T01:01:34;96081.22;;;9.28;100.00
55271;BME280;41132;47.162;9.470;2023-03-23T01:04:01;96081.56;;;9.25;100.00
55271;BME280;41132;47.162;9.470;2023-03-23T01:06:30;96086.31;;;9.29;100.00
55271;BME280;41132;47.162;9.470;2023-03-23T01:08:56;96076.81;;;9.28;100.00
55271;BME280;41132;47.162;9.470;2023-03-23T01:11:22;96080.72;;;9.24;100.00
55271;BME280;41132;47.162;9.470;2023-03-23T01:13:47;96084.94;;;9.17;100.00
55271;BME280;41132;47.162;9.470;2023-03-23T01:16:13;96080.84;;;9.14;100.00
55271;BME280;41132;47.162;9.470;2023-03-23T01:18:39;96089.44;;;9.33;100.00
55271;BME280;41132;47.162;9.470;2023-03-23T01:21:09;96085.31;;;9.22;100.00
55271;BME280;41132;47.162;9.470;2023-03-23T01:23:36;96083.97;;;9.18;100.00
55271;BME280;41132;47.162;9.470;2023-03-23T01:26:07;96081.19;;;9.19;100.00
55271;BME280;41132;47.162;9.470;2023-03-23T01:28:33;96083.03;;;9.35;100.00
55271;BME280;41132;47.162;9.470;2023-03-23T01:31:04;96078.81;;;9.34;100.00
55271;BME280;41132;47.162;9.470;2023-03-23T01:33:30;96083.66;;;9.21;100.00
55271;BME280;41132;47.162;9.470;2023-03-23T01:35:56;96080.69;;;9.16;100.00
55271;BME280;41132;47.162;9.470;2023-03-23T01:38:22;96063.03;;;9.26;100.00
55271;BME280;41132;47.162;9.470;2023-03-23T01:40:47;96071.75;;;9.27;100.00
55271;BME280;41132;47.162;9.470;2023-03-23T01:43:14;96080.25;;;9.29;100.00
55271;BME280;41132;47.162;9.470;2023-03-23T01:45:41;96073.19;;;9.21;100.00
55271;BME280;41132;47.162;9.470;2023-03-23T01:48:23;96082.22;;;9.35;100.00
55271;BME280;41132;47.162;9.470;2023-03-23T01:50:58;96074.66;;;9.15;100.00
55271;BME280;41132;47.162;9.470;2023-03-23T01:53:28;96073.25;;;9.03;100.00
55271;BME280;41132;47.162;9.470;2023-03-23T01:55:56;96078.69;;;9.10;100.00
55271;BME280;41132;47.162;9.470;2023-03-23T01:58:26;96069.41;;;9.15;100.00
55271;BME280;41132;47.162;9.470;2023-03-23T02:00:56;96060.84;;;9.05;100.00
55271;BME280;41132;47.162;9.470;2023-03-23T02:03:24;96061.63;;;8.97;100.00
55271;BME280;41132;47.162;9.470;2023-03-23T02:05:50;96070.56;;;8.87;100.00
55271;BME280;41132;47.162;9.470;2023-03-23T02:08:17;96060.22;;;9.11;100.00
55271;BME280;41132;47.162;9.470;2023-03-23T02:10:43;96064.66;;;9.19;100.00
55271;BME280;41132;47.162;9.470;2023-03-23T02:13:11;96065.28;;;9.13;100.00
55271;BME280;41132;47.162;9.470;2023-03-23T02:16:11;96070.19;;;9.08;100.00
55271;BME280;41132;47.162;9.470;2023-03-23T02:24:16;96071.72;;;8.92;100.00
55271;BME280;41132;47.162;9.470;2023-03-23T02:26:57;96080.63;;;8.99;100.00
55271;BME280;41132;47.162;9.470;2023-03-23T02:32:10;96085.53;;;9.03;100.00
55271;BME280;41132;47.162;9.470;2023-03-23T02:35:14;96081.47;;;9.08;100.00
55271;BME280;41132;47.162;9.470;2023-03-23T02:37:46;96088.94;;;8.95;100.00
55271;BME280;41132;47.162;9.470;2023-03-23T02:40:18;96084.00;;;8.92;100.00
55271;BME280;41132;47.162;9.470;2023-03-23T02:42:49;96091.94;;;9.08;100.00
55271;BME280;41132;47.162;9.470;2023-03-23T02:45:17;96099.69;;;9.18;100.00
55271;BME280;41132;47.162;9.470;2023-03-23T02:47:45;96092.03;;;9.33;100.00
55271;BME280;41132;47.162;9.470;2023-03-23T02:50:14;96081.38;;;9.26;100.00
55271;BME280;41132;47.162;9.470;2023-03-23T02:52:41;96075.00;;;9.20;100.00
55271;BME280;41132;47.162;9.470;2023-03-23T02:55:09;96088.56;;;9.24;100.00
55271;BME280;41132;47.162;9.470;2023-03-23T02:57:37;96091.47;;;9.13;100.00
55271;BME280;41132;47.162;9.470;2023-03-23T03:00:04;96090.31;;;9.07;100.00
55271;BME280;41132;47.162;9.470;2023-03-23T03:02:36;96090.50;;;9.14;100.00
55271;BME280;41132;47.162;9.470;2023-03-23T03:10:46;96082.13;;;9.10;100.00
55271;BME280;41132;47.162;9.470;2023-03-23T03:13:34;96085.31;;;9.22;100.00
55271;BME280;41132;47.162;9.470;2023-03-23T03:16:35;96086.50;;;9.36;100.00
55271;BME280;41132;47.162;9.470;2023-03-23T03:19:08;96091.63;;;9.46;100.00
55271;BME280;41132;47.162;9.470;2023-03-23T03:21:40;96095.38;;;9.51;100.00
55271;BME280;41132;47.162;9.470;2023-03-23T03:24:07;96085.19;;;9.32;100.00
55271;BME280;41132;47.162;9.470;2023-03-23T03:26:38;96081.09;;;9.29;100.00
55271;BME280;41132;47.162;9.470;2023-03-23T03:29:05;96094.84;;;9.39;100.00
55271;BME280;41132;47.162;9.470;2023-03-23T03:31:38;96097.66;;;9.38;100.00
55271;BME280;41132;47.162;9.470;2023-03-23T03:34:05;96092.50;;;9.28;100.00
55271;BME280;41132;47.162;9.470;2023-03-23T03:36:33;96116.28;;;9.35;100.00
55271;BME280;41132;47.162;9.470;2023-03-23T03:39:05;96118.44;;;9.39;100.00
55271;BME280;41132;47.162;9.470;2023-03-23T03:41:33;96113.09;;;9.49;100.00
55271;BME280;41132;47.162;9.470;2023-03-23T03:43:59;96112.28;;;9.57;100.00
55271;BME280;41132;47.162;9.470;2023-03-23T03:46:24;96110.34;;;9.67;100.00
55271;BME280;41132;47.162;9.470;2023-03-23T03:48:53;96116.38;;;9.59;100.00
55271;BME280;41132;47.162;9.470;2023-03-23T03:51:18;96121.63;;;9.59;100.00
55271;BME280;41132;47.162;9.470;2023-03-23T03:53:44;96126.22;;;9.66;100.00
55271;BME280;41132;47.162;9.470;2023-03-23T03:56:09;96132.00;;;9.77;88.97
55271;BME280;41132;47.162;9.470;2023-03-23T03:58:35;96125.16;;;9.93;84.67
55271;BME280;41132;47.162;9.470;2023-03-23T04:01:02;96119.13;;;10.09;83.01
55271;BME280;41132;47.162;9.470;2023-03-23T04:03:28;96111.75;;;10.12;82.28
55271;BME280;41132;47.162;9.470;2023-03-23T04:05:54;96115.84;;;10.07;90.46
55271;BME280;41132;47.162;9.470;2023-03-23T04:08:21;96103.19;;;9.94;95.21
55271;BME280;41132;47.162;9.470;2023-03-23T04:10:48;96099.13;;;9.99;94.06
55271;BME280;41132;47.162;9.470;2023-03-23T04:13:13;96101.25;;;9.96;98.46
55271;BME280;41132;47.162;9.470;2023-03-23T04:15:39;96094.22;;;10.04;93.61
55271;BME280;41132;47.162;9.470;2023-03-23T04:18:04;96105.84;;;10.02;95.21
55271;BME280;41132;47.162;9.470;2023-03-23T04:20:31;96103.88;;;10.04;96.31
55271;BME280;41132;47.162;9.470;2023-03-23T04:22:56;96101.59;;;10.09;87.14
55271;BME280;41132;47.162;9.470;2023-03-23T04:25:22;96095.03;;;10.13;80.66
55271;BME280;41132;47.162;9.470;2023-03-23T04:27:49;96098.50;;;10.22;79.84
55271;BME280;41132;47.162;9.470;2023-03-23T04:30:18;96110.00;;;10.29;79.79
55271;BME280;41132;47.162;9.470;2023-03-23T04:32:45;96101.47;;;10.35;79.46
55271;BME280;41132;47.162;9.470;2023-03-23T04:35:12;96101.13;;;10.47;79.04
55271;BME280;41132;47.162;9.470;2023-03-23T04:37:39;96080.31;;;10.45;75.93
55271;BME280;41132;47.162;9.470;2023-03-23T04:40:07;96093.75;;;10.50;75.36
55271;BME280;41132;47.162;9.470;2023-03-23T04:42:36;96070.81;;;10.44;77.35
55271;BME280;41132;47.162;9.470;2023-03-23T04:45:03;96070.47;;;10.31;83.64
55271;BME280;41132;47.162;9.470;2023-03-23T04:47:33;96072.13;;;10.32;86.29
55271;BME280;41132;47.162;9.470;2023-03-23T04:50:10;96084.25;;;10.41;86.38
55271;BME280;41132;47.162;9.470;2023-03-23T04:52:38;96071.47;;;10.30;86.00
55271;BME280;41132;47.162;9.470;2023-03-23T04:55:07;96085.41;;;10.30;90.95
55271;BME280;41132;47.162;9.470;2023-03-23T04:57:33;96080.44;;;10.19;94.79
55271;BME280;41132;47.162;9.470;2023-03-23T05:00:00;96075.72;;;10.22;94.48
55271;BME280;41132;47.162;9.470;2023-03-23T05:02:25;96071.91;;;10.17;94.39
55271;BME280;41132;47.162;9.470;2023-03-23T05:04:56;96074.72;;;10.23;91.13
55271;BME280;41132;47.162;9.470;2023-03-23T05:07:22;96071.13;;;10.33;87.38
55271;BME280;41132;47.162;9.470;2023-03-23T05:09:48;96059.97;;;10.22;89.83
55271;BME280;41132;47.162;9.470;2023-03-23T05:12:14;96056.69;;;10.29;89.43
55271;BME280;41132;47.162;9.470;2023-03-23T05:14:41;96066.06;;;10.39;86.84
55271;BME280;41132;47.162;9.470;2023-03-23T05:17:06;96053.28;;;10.36;88.40
55271;BME280;41132;47.162;9.470;2023-03-23T05:19:32;96052.63;;;10.42;84.52
55271;BME280;41132;47.162;9.470;2023-03-23T05:21:58;96047.88;;;10.38;87.04
55271;BME280;41132;47.162;9.470;2023-03-23T05:24:31;96065.56;;;10.44;86.33
55271;BME280;41132;47.162;9.470;2023-03-23T05:26:58;96061.78;;;10.47;84.30
55271;BME280;41132;47.162;9.470;2023-03-23T05:29:23;96081.31;;;10.52;79.40
55271;BME280;41132;47.162;9.470;2023-03-23T05:31:49;96072.44;;;10.37;87.26
55271;BME280;41132;47.162;9.470;2023-03-23T05:34:15;96074.75;;;10.56;79.80
55271;BME280;41132;47.162;9.470;2023-03-23T05:36:41;96067.72;;;10.40;88.20
55271;BME280;41132;47.162;9.470;2023-03-23T05:39:09;96072.09;;;10.40;90.58
55271;BME280;41132;47.162;9.470;2023-03-23T05:41:35;96075.88;;;10.37;92.67
55271;BME280;41132;47.162;9.470;2023-03-23T05:44:00;96063.13;;;10.42;91.95
55271;BME280;41132;47.162;9.470;2023-03-23T05:46:26;96076.22;;;10.42;93.47
55271;BME280;41132;47.162;9.470;2023-03-23T05:48:51;96059.84;;;10.40;91.86
55271;BME280;41132;47.162;9.470;2023-03-23T05:51:17;96063.78;;;10.36;93.47
55271;BME280;41132;47.162;9.470;2023-03-23T05:53:43;96069.66;;;10.30;95.83
55271;BME280;41132;47.162;9.470;2023-03-23T05:56:09;96065.91;;;10.41;91.65
55271;BME280;41132;47.162;9.470;2023-03-23T05:58:34;96061.31;;;10.35;92.22
55271;BME280;41132;47.162;9.470;2023-03-23T06:00:59;96060.78;;;10.23;92.87
55271;BME280;41132;47.162;9.470;2023-03-23T06:03:25;96072.63;;;10.43;89.14
55271;BME280;41132;47.162;9.470;2023-03-23T06:05:50;96056.03;;;10.27;93.60
55271;BME280;41132;47.162;9.470;2023-03-23T06:08:16;96072.44;;;10.20;94.94
55271;BME280;41132;47.162;9.470;2023-03-23T06:10:42;96070.94;;;10.26;93.63
55271;BME280;41132;47.162;9.470;2023-03-23T06:13:07;96059.81;;;10.16;94.78
55271;BME280;41132;47.162;9.470;2023-03-23T06:15:32;96064.72;;;10.19;94.73
55271;BME280;41132;47.162;9.470;2023-03-23T06:17:59;96067.84;;;10.31;95.92
55271;BME280;41132;47.162;9.470;2023-03-23T06:20:24;96071.97;;;10.50;91.68
55271;BME280;41132;47.162;9.470;2023-03-23T06:22:50;96060.31;;;10.52;89.62
55271;BME280;41132;47.162;9.470;2023-03-23T06:25:17;96076.69;;;10.71;88.74
55271;BME280;41132;47.162;9.470;2023-03-23T06:27:42;96061.78;;;10.55;93.88
55271;BME280;41132;47.162;9.470;2023-03-23T06:30:09;96060.31;;;10.52;90.91
55271;BME280;41132;47.162;9.470;2023-03-23T06:32:35;96071.28;;;10.56;93.04
55271;BME280;41132;47.162;9.470;2023-03-23T06:35:01;96056.72;;;10.37;92.93
55271;BME280;41132;47.162;9.470;2023-03-23T06:37:26;96077.22;;;10.50;94.25
55271;BME280;41132;47.162;9.470;2023-03-23T06:39:52;96073.28;;;10.54;98.25
55271;BME280;41132;47.162;9.470;2023-03-23T06:42:17;96047.84;;;10.46;99.34
55271;BME280;41132;47.162;9.470;2023-03-23T06:44:43;96061.09;;;10.69;96.41
55271;BME280;41132;47.162;9.470;2023-03-23T06:47:08;96066.16;;;10.87;93.13
55271;BME280;41132;47.162;9.470;2023-03-23T06:49:34;96067.91;;;11.03;93.93
55271;BME280;41132;47.162;9.470;2023-03-23T06:52:00;96074.31;;;10.92;100.00
55271;BME280;41132;47.162;9.470;2023-03-23T06:54:27;96055.66;;;10.87;100.00
55271;BME280;41132;47.162;9.470;2023-03-23T06:56:53;96047.25;;;10.92;95.70
55271;BME280;41132;47.162;9.470;2023-03-23T06:59:18;96054.78;;;11.03;96.06
55271;BME280;41132;47.162;9.470;2023-03-23T07:01:44;96061.50;;;11.05;94.67
55271;BME280;41132;47.162;9.470;2023-03-23T07:04:11;96057.84;;;11.15;92.47
55271;BME280;41132;47.162;9.470;2023-03-23T07:06:37;96059.00;;;11.12;93.16
55271;BME280;41132;47.162;9.470;2023-03-23T07:09:03;96041.13;;;11.07;96.68
55271;BME280;41132;47.162;9.470;2023-03-23T07:11:28;96064.75;;;11.16;95.87
55271;BME280;41132;47.162;9.470;2023-03-23T07:13:54;96070.28;;;11.29;95.32
55271;BME280;41132;47.162;9.470;2023-03-23T07:16:19;96060.91;;;11.35;92.25
55271;BME280;41132;47.162;9.470;2023-03-23T07:18:44;96050.16;;;11.13;90.26
55271;BME280;41132;47.162;9.470;2023-03-23T07:21:10;96067.19;;;11.25;88.75
55271;BME280;41132;47.162;9.470;2023-03-23T07:23:35;96048.19;;;11.15;89.46
55271;BME280;41132;47.162;9.470;2023-03-23T07:26:01;96070.16;;;11.22;88.85
55271;BME280;41132;47.162;9.470;2023-03-23T07:28:28;96048.44;;;11.28;92.88
55271;BME280;41132;47.162;9.470;2023-03-23T07:30:54;96067.75;;;11.44;89.57
55271;BME280;41132;47.162;9.470;2023-03-23T07:33:20;96069.59;;;11.35;90.22
55271;BME280;41132;47.162;9.470;2023-03-23T07:35:45;96063.69;;;11.33;91.68
55271;BME280;41132;47.162;9.470;2023-03-23T07:38:10;96060.09;;;11.34;92.36
55271;BME280;41132;47.162;9.470;2023-03-23T07:40:36;96069.44;;;11.68;91.38
55271;BME280;41132;47.162;9.470;2023-03-23T07:43:03;96073.97;;;11.82;88.58
55271;BME280;41132;47.162;9.470;2023-03-23T07:45:29;96076.59;;;12.14;84.58
55271;BME280;41132;47.162;9.470;2023-03-23T07:47:54;96074.72;;;11.99;84.74
55271;BME280;41132;47.162;9.470;2023-03-23T07:50:21;96049.00;;;12.09;82.94
55271;BME280;41132;47.162;9.470;2023-03-23T07:52:50;96069.38;;;12.30;82.37
55271;BME280;41132;47.162;9.470;2023-03-23T07:55:15;96075.66;;;12.44;82.22
55271;BME280;41132;47.162;9.470;2023-03-23T07:57:45;96082.69;;;12.52;86.10
55271;BME280;41132;47.162;9.470;2023-03-23T08:00:11;96083.16;;;12.56;85.52
55271;BME280;41132;47.162;9.470;2023-03-23T08:02:47;96086.63;;;12.71;79.59
55271;BME280;41132;47.162;9.470;2023-03-23T08:05:14;96086.66;;;13.01;85.48
55271;BME280;41132;47.162;9.470;2023-03-23T08:07:39;96083.06;;;13.02;79.04
55271;BME280;41132;47.162;9.470;2023-03-23T08:10:06;96094.56;;;13.01;74.51
55271;BME280;41132;47.162;9.470;2023-03-23T08:12:36;96081.78;;;12.98;73.10
55271;BME280;41132;47.162;9.470;2023-03-23T08:15:03;96086.22;;;13.12;68.43
55271;BME280;41132;47.162;9.470;2023-03-23T08:17:28;96084.50;;;13.04;71.92
55271;BME280;41132;47.162;9.470;2023-03-23T08:19:53;96101.38;;;13.10;69.62
55271;BME280;41132;47.162;9.470;2023-03-23T08:22:19;96089.03;;;13.25;68.50
55271;BME280;41132;47.162;9.470;2023-03-23T08:24:44;96092.03;;;13.07;70.09
55271;BME280;41132;47.162;9.470;2023-03-23T08:27:10;96081.59;;;12.99;70.67
55271;BME280;41132;47.162;9.470;2023-03-23T08:29:35;96094.75;;;13.14;71.72
55271;BME280;41132;47.162;9.470;2023-03-23T08:32:01;96084.31;;;13.21;73.54
55271;BME280;41132;47.162;9.470;2023-03-23T08:34:28;96102.69;;;13.44;74.21
55271;BME280;41132;47.162;9.470;2023-03-23T08:36:54;96094.81;;;13.29;71.42
55271;BME280;41132;47.162;9.470;2023-03-23T08:39:20;96086.16;;;13.35;77.51
55271;BME280;41132;47.162;9.470;2023-03-23T08:41:48;96093.97;;;13.58;82.52
55271;BME280;41132;47.162;9.470;2023-03-23T08:44:14;96087.84;;;13.72;77.23
55271;BME280;41132;47.162;9.470;2023-03-23T08:46:39;96083.53;;;13.86;73.81
55271;BME280;41132;47.162;9.470;2023-03-23T08:49:05;96077.38;;;14.44;76.08
55271;BME280;41132;47.162;9.470;2023-03-23T08:51:31;96074.09;;;14.56;69.12
55271;BME280;41132;47.162;9.470;2023-03-23T08:53:57;96070.47;;;14.64;67.82
55271;BME280;41132;47.162;9.470;2023-03-23T08:56:22;96074.00;;;14.99;69.08
55271;BME280;41132;47.162;9.470;2023-03-23T08:58:48;96072.31;;;15.27;68.17
55271;BME280;41132;47.162;9.470;2023-03-23T09:01:14;96063.19;;;15.71;66.96
55271;BME280;41132;47.162;9.470;2023-03-23T09:03:40;96058.13;;;15.82;61.82
55271;BME280;41132;47.162;9.470;2023-03-23T09:06:07;96073.81;;;15.84;61.27
55271;BME280;41132;47.162;9.470;2023-03-23T09:08:34;96059.03;;;15.61;64.39
55271;BME280;41132;47.162;9.470;2023-03-23T09:11:06;96081.03;;;15.69;60.33
55271;BME280;41132;47.162;9.470;2023-03-23T09:13:32;96078.09;;;15.78;62.85
55271;BME280;41132;47.162;9.470;2023-03-23T09:15:58;96066.31;;;15.46;62.55
55271;BME280;41132;47.162;9.470;2023-03-23T09:18:23;96080.38;;;15.47;61.07
55271;BME280;41132;47.162;9.470;2023-03-23T09:20:50;96085.69;;;15.18;62.18
55271;BME280;41132;47.162;9.470;2023-03-23T09:23:16;96089.53;;;15.16;61.07
55271;BME280;41132;47.162;9.470;2023-03-23T09:25:42;96082.66;;;15.21;61.80
55271;BME280;41132;47.162;9.470;2023-03-23T09:28:08;96079.19;;;15.21;61.10
55271;BME280;41132;47.162;9.470;2023-03-23T09:30:34;96077.84;;;15.32;57.44
55271;BME280;41132;47.162;9.470;2023-03-23T09:33:03;96080.94;;;15.42;58.75
55271;BME280;41132;47.162;9.470;2023-03-23T09:35:30;96078.69;;;15.39;57.42
55271;BME280;41132;47.162;9.470;2023-03-23T09:37:57;96086.03;;;15.43;58.56
55271;BME280;41132;47.162;9.470;2023-03-23T09:40:30;96080.16;;;15.48;56.76
55271;BME280;41132;47.162;9.470;2023-03-23T09:43:27;96076.94;;;15.59;56.94
55271;BME280;41132;47.162;9.470;2023-03-23T09:48:55;96078.13;;;15.50;57.77
55271;BME280;41132;47.162;9.470;2023-03-23T09:51:48;96084.81;;;15.46;61.69
55271;BME280;41132;47.162;9.470;2023-03-23T09:54:31;96086.53;;;15.25;64.28
55271;BME280;41132;47.162;9.470;2023-03-23T09:57:00;96081.28;;;15.32;65.12
55271;BME280;41132;47.162;9.470;2023-03-23T09:59:55;96093.56;;;15.40;69.67
55271;BME280;41132;47.162;9.470;2023-03-23T10:02:33;96088.03;;;15.41;66.96
55271;BME280;41132;47.162;9.470;2023-03-23T10:05:29;96091.75;;;15.47;67.77
55271;BME280;41132;47.162;9.470;2023-03-23T10:07:56;96077.50;;;15.48;69.78
55271;BME280;41132;47.162;9.470;2023-03-23T10:10:26;96083.03;;;15.60;64.48
55271;BME280;41132;47.162;9.470;2023-03-23T10:13:17;96090.06;;;15.74;64.42
55271;BME280;41132;47.162;9.470;2023-03-23T10:15:45;96080.13;;;15.83;65.30
55271;BME280;41132;47.162;9.470;2023-03-23T10:18:17;96089.72;;;15.91;62.14
55271;BME280;41132;47.162;9.470;2023-03-23T10:21:13;96081.59;;;16.05;62.27
55271;BME280;41132;47.162;9.470;2023-03-23T10:23:53;96074.09;;;16.22;61.58
55271;BME280;41132;47.162;9.470;2023-03-23T10:28:51;96060.66;;;16.44;57.37
55271;BME280;41132;47.162;9.470;2023-03-23T10:31:46;96065.41;;;16.82;59.42
55271;BME280;41132;47.162;9.470;2023-03-23T10:34:19;96072.91;;;16.98;59.38
55271;BME280;41132;47.162;9.470;2023-03-23T10:37:12;96070.28;;;16.91;55.87
55271;BME280;41132;47.162;9.470;2023-03-23T10:39:59;96062.31;;;16.98;50.83
55271;BME280;41132;47.162;9.470;2023-03-23T10:42:31;96066.59;;;17.06;54.04
55271;BME280;41132;47.162;9.470;2023-03-23T10:45:00;96066.59;;;17.06;54.49
55271;BME280;41132;47.162;9.470;2023-03-23T10:47:25;96066.59;;;16.99;54.21
55271;BME280;41132;47.162;9.470;2023-03-23T10:49:59;96074.75;;;16.98;53.73
55271;BME280;41132;47.162;9.470;2023-03-23T10:52:31;96073.28;;;17.22;54.09
55271;BME280;41132;47.162;9.470;2023-03-23T10:55:07;96086.16;;;17.18;55.48
55271;BME280;41132;47.162;9.470;2023-03-23T10:57:35;96086.16;;;17.18;57.38
55271;BME280;41132;47.162;9.470;2023-03-23T11:02:44;96075.97;;;17.02;54.71
55271;BME280;41132;47.162;9.470;2023-03-23T11:05:18;96086.56;;;17.08;54.36
55271;BME280;41132;47.162;9.470;2023-03-23T11:07:54;96084.50;;;17.24;57.95
55271;BME280;41132;47.162;9.470;2023-03-23T11:10:23;96090.81;;;17.23;57.40
55271;BME280;41132;47.162;9.470;2023-03-23T11:12:50;96085.16;;;17.13;57.12
55271;BME280;41132;47.162;9.470;2023-03-23T11:15:37;96081.88;;;17.10;52.86
55271;BME280;41132;47.162;9.470;2023-03-23T11:18:06;96078.03;;;17.00;54.88
55271;BME280;41132;47.162;9.470;2023-03-23T11:20:39;96074.34;;;17.01;55.77
55271;BME280;41132;47.162;9.470;2023-03-23T11:23:19;96079.41;;;17.29;56.60
55271;BME280;41132;47.162;9.470;2023-03-23T11:26:13;96082.44;;;17.32;56.16
55271;BME280;41132;47.162;9.470;2023-03-23T11:28:45;96058.97;;;17.29;56.49
55271;BME280;41132;47.162;9.470;2023-03-23T11:31:11;96067.25;;;17.53;52.01
55271;BME280;41132;47.162;9.470;2023-03-23T11:33:56;96062.59;;;17.42;52.40
55271;BME280;41132;47.162;9.470;2023-03-23T11:36:58;96065.22;;;17.55;52.02
55271;BME280;41132;47.162;9.470;2023-03-23T11:39:27;96062.38;;;17.50;54.78
55271;BME280;41132;47.162;9.470;2023-03-23T11:41:54;96062.22;;;17.45;54.58
55271;BME280;41132;47.162;9.470;2023-03-23T11:44:24;96068.13;;;17.47;54.79
55271;BME280;41132;47.162;9.470;2023-03-23T11:47:36;96057.88;;;17.57;55.67
55271;BME280;41132;47.162;9.470;2023-03-23T11:58:15;96048.94;;;17.51;52.89
55271;BME280;41132;47.162;9.470;2023-03-23T12:00:55;96050.91;;;17.63;53.12
55271;BME280;41132;47.162;9.470;2023-03-23T12:06:05;96050.50;;;17.59;54.02
55271;BME280;41132;47.162;9.470;2023-03-23T12:30:45;96009.09;;;18.03;54.44
55271;BME280;41132;47.162;9.470;2023-03-23T12:33:29;96004.63;;;17.97;52.66
55271;BME280;41132;47.162;9.470;2023-03-23T12:41:39;95998.19;;;17.73;53.37
55271;BME280;41132;47.162;9.470;2023-03-23T12:44:11;95991.69;;;17.69;52.59
55271;BME280;41132;47.162;9.470;2023-03-23T12:49:23;95993.44;;;17.88;53.14
55271;BME280;41132;47.162;9.470;2023-03-23T12:55:00;95984.78;;;18.00;51.37
55271;BME280;41132;47.162;9.470;2023-03-23T12:57:51;95975.59;;;18.02;53.99
55271;BME280;41132;47.162;9.470;2023-03-23T13:00:30;95967.91;;;18.19;54.30
55271;BME280;41132;47.162;9.470;2023-03-23T13:03:01;95975.53;;;18.09;49.84
55271;BME280;41132;47.162;9.470;2023-03-23T13:06:12;95972.56;;;17.99;51.40
55271;BME280;41132;47.162;9.470;2023-03-23T13:08:34;95969.78;;;18.12;52.24
55271;BME280;41132;47.162;9.470;2023-03-23T13:11:04;95967.56;;;18.09;54.95
55271;BME280;41132;47.162;9.470;2023-03-23T13:13:55;95958.25;;;18.25;54.63
55271;BME280;41132;47.162;9.470;2023-03-23T13:16:27;95954.94;;;18.29;54.96
55271;BME280;41132;47.162;9.470;2023-03-23T13:21:40;95945.78;;;18.25;53.70
55271;BME280;41132;47.162;9.470;2023-03-23T13:24:11;95949.53;;;18.18;54.24
55271;BME280;41132;47.162;9.470;2023-03-23T13:26:39;95956.84;;;18.22;53.59
55271;BME280;41132;47.162;9.470;2023-03-23T13:29:10;95959.88;;;18.26;53.23
55271;BME280;41132;47.162;9.470;2023-03-23T13:31:38;95953.34;;;18.28;52.07
55271;BME280;41132;47.162;9.470;2023-03-23T13:36:37;95944.13;;;18.31;52.75
55271;BME280;41132;47.162;9.470;2023-03-23T13:39:06;95949.31;;;18.19;52.52
55271;BME280;41132;47.162;9.470;2023-03-23T13:41:34;95955.16;;;18.03;52.08
55271;BME280;41132;47.162;9.470;2023-03-23T13:50:24;95943.72;;;18.02;50.64
55271;BME280;41132;47.162;9.470;2023-03-23T13:52:57;95947.47;;;17.94;49.02
55271;BME280;41132;47.162;9.470;2023-03-23T13:55:46;95945.94;;;18.05;50.02
55271;BME280;41132;47.162;9.470;2023-03-23T13:58:22;95937.00;;;18.00;49.55
55271;BME280;41132;47.162;9.470;2023-03-23T14:01:00;95935.97;;;18.01;47.28
55271;BME280;41132;47.162;9.470;2023-03-23T14:03:35;95940.69;;;17.99;48.36
55271;BME280;41132;47.162;9.470;2023-03-23T14:06:05;95927.63;;;17.97;47.72
55271;BME280;41132;47.162;9.470;2023-03-23T14:10:59;95938.25;;;17.97;49.79
55271;BME280;41132;47.162;9.470;2023-03-23T14:13:31;95936.03;;;17.94;49.97
55271;BME280;41132;47.162;9.470;2023-03-23T14:16:05;95936.09;;;17.81;49.77
55271;BME280;41132;47.162;9.470;2023-03-23T14:18:39;95940.81;;;17.79;50.13
55271;BME280;41132;47.162;9.470;2023-03-23T14:21:14;95941.50;;;17.67;50.54
55271;BME280;41132;47.162;9.470;2023-03-23T14:23:40;95954.00;;;17.60;50.72
55271;BME280;41132;47.162;9.470;2023-03-23T14:26:15;95942.63;;;17.46;50.79
55271;BME280;41132;47.162;9.470;2023-03-23T14:28:43;95960.81;;;17.43;50.43
55271;BME280;41132;47.162;9.470;2023-03-23T14:33:41;95961.25;;;17.40;50.61
55271;BME280;41132;47.162;9.470;2023-03-23T14:36:07;95958.81;;;17.31;50.51
55271;BME280;41132;47.162;9.470;2023-03-23T14:38:33;95970.06;;;17.27;50.77